Portada
METAR-TAF:

METAR-TAF

Aeropuertos :

Estocolmo-Arlanda, Suecia

Aeropuerto de Estocolmo-Arlanda

latitud: 59-39N, longitud: 017-57E, altitud: 38 m

Observación

El informe se hizo hace 16 minutos, a las 22:20 UTC
Viento 6 kt del noreste
Temperatura 13°C
Humedad 88%
Presión 1021 hPa
Visibilidad 10 km o más
sin nubes por debajo de 1500 m y sin presencia de cumulonimbus.

METAR: ESSA 222220Z 05006KT CAVOK 13/11 Q1021 NOSIG

Hora: 00:36 (22:36 UTC)

Pronóstico

El informe se hizo hace 5 horas y 6 minutos, a las 17:30 UTC
Pronóstico válido del 22 a las 18 UTC al 23 a las 18 UTC
Viento 6 kt del este
Visibilidad 10 km o más
sin nubes por debajo de 1500 m y sin presencia de cumulonimbus.
Probabilidad 40%
del 23 a las 03 UTC al 23 a las 09 UTC
Nubes dispersas a una altura de 5000 ft, Cumulonimbus.
chaparrones de lluvia

TAF: ESSA 221730Z 2218/2318 10006KT CAVOK PROB40 2303/2309 SHRA SCT050CB

Observaciones y pronósticos meteorológicos de más de 4000 aeropuertos (mensajes METAR y TAF).

Los puntos amarillos y rojos representan las estaciones disponibles.

Ponga el ratón en el punto deseado para ver el nombre de la estación.

Haga clic para ver las observaciones y los pronósticos meteorológicos.

Para cambiar el mapa : haga clic en los botones verdes con una cruz de color negro para hacer un zoom, en el botón verde con un guión para alejar o en las flechas verdes para mapas adyacentes.


METAR-TAF: